VIR12E KBOS-EGLL
Flight info
| Callsign | VIR12E |
|---|---|
| Flight time | 6h 2m |
| Altitude | 37000 |
| Route | LBSTA DCT ALLEX N357C JOOPY/M082F380 DCT 49N050W 51N040W 53N030W 54N020W DCT DOGAL DCT BEXET/N0464F390 DCT DEVOL DCT RINUS DCT LIFFY UL975 MALUD Q38 NUGRA |
| Aircraft | A333/H-SDE3GHIJ2J3J5M1RVWXYZ/LB2D1 |
Departure
| Time | 2026-05-04 13:05 |
|---|---|
| Airport | Boston Logan International Airport (KBOS) |
Arrival
| Time | 2026-05-04 19:07 |
|---|---|
| Airport | London Heathrow Airport (EGLL) |
| Time | Latitude | Longitude | Altitude | Speed | Heading |
|---|---|---|---|---|---|
| 2026-05-04 12:46 | 42.37093 | -71.02150 | 29 ft | 0 kts | 148° |
| 2026-05-04 12:55 | 42.37110 | -71.02164 | 29 ft | 4 kts | 146° |
| 2026-05-04 12:55 | 42.37132 | -71.02186 | 29 ft | 4 kts | 140° |
| 2026-05-04 12:56 | 42.37150 | -71.02211 | 29 ft | 4 kts | 118° |
| 2026-05-04 12:56 | 42.37155 | -71.02237 | 29 ft | 3 kts | 51° |
| 2026-05-04 12:56 | 42.37158 | -71.02233 | 29 ft | 4 kts | 47° |
| 2026-05-04 12:56 | 42.37178 | -71.02209 | 29 ft | 4 kts | 41° |
| 2026-05-04 12:57 | 42.37198 | -71.02184 | 29 ft | 4 kts | 42° |
| 2026-05-04 12:57 | 42.37205 | -71.02176 | 29 ft | 2 kts | 43° |
| 2026-05-04 13:00 | 42.37206 | -71.02174 | 29 ft | 1 kts | 43° |
| 2026-05-04 13:00 | 42.37210 | -71.02169 | 29 ft | 1 kts | 43° |
| 2026-05-04 13:00 | 42.37216 | -71.02160 | 29 ft | 1 kts | 49° |
| 2026-05-04 13:01 | 42.37224 | -71.02146 | 29 ft | 3 kts | 52° |
| 2026-05-04 13:01 | 42.37238 | -71.02121 | 29 ft | 4 kts | 53° |
| 2026-05-04 13:01 | 42.37239 | -71.02100 | 29 ft | 2 kts | 90° |
| 2026-05-04 13:01 | 42.37238 | -71.02072 | 29 ft | 4 kts | 96° |
| 2026-05-04 13:02 | 42.37232 | -71.02015 | 29 ft | 8 kts | 97° |
| 2026-05-04 13:02 | 42.37244 | -71.01951 | 29 ft | 7 kts | 65° |
| 2026-05-04 13:02 | 42.37274 | -71.01899 | 29 ft | 7 kts | 44° |
| 2026-05-04 13:02 | 42.37314 | -71.01878 | 29 ft | 6 kts | 14° |
| 2026-05-04 13:03 | 42.37353 | -71.01856 | 28 ft | 6 kts | 36° |
| 2026-05-04 13:03 | 42.37381 | -71.01817 | 29 ft | 6 kts | 51° |
| 2026-05-04 13:03 | 42.37396 | -71.01773 | 29 ft | 5 kts | 80° |
| 2026-05-04 13:03 | 42.37390 | -71.01729 | 29 ft | 5 kts | 104° |
| 2026-05-04 13:04 | 42.37380 | -71.01717 | 28 ft | 3 kts | 141° |
| 2026-05-04 13:04 | 42.37321 | -71.01648 | 29 ft | 25 kts | 136° |
| 2026-05-04 13:04 | 42.37053 | -71.01291 | 29 ft | 84 kts | 134° |
| 2026-05-04 13:04 | 42.36502 | -71.00553 | 29 ft | 137 kts | 136° |
| 2026-05-04 13:05 | 42.35726 | -70.99488 | 123 ft | 172 kts | 141° |
| 2026-05-04 13:05 | 42.34878 | -70.98342 | 678 ft | 183 kts | 139° |
| 2026-05-04 13:05 | 42.34216 | -70.96709 | 1190 ft | 204 kts | 114° |
| 2026-05-04 13:05 | 42.33808 | -70.94892 | 2072 ft | 200 kts | 110° |
| 2026-05-04 13:06 | 42.33444 | -70.93098 | 2840 ft | 196 kts | 109° |
| 2026-05-04 13:06 | 42.33077 | -70.91296 | 3370 ft | 206 kts | 109° |
| 2026-05-04 13:06 | 42.32673 | -70.89362 | 3564 ft | 228 kts | 109° |
| 2026-05-04 13:06 | 42.32314 | -70.87166 | 3727 ft | 252 kts | 96° |
| 2026-05-04 13:07 | 42.32483 | -70.84709 | 3917 ft | 273 kts | 78° |
| 2026-05-04 13:07 | 42.32930 | -70.82152 | 4279 ft | 283 kts | 75° |
| 2026-05-04 13:07 | 42.33427 | -70.79524 | 4658 ft | 294 kts | 75° |
| 2026-05-04 13:07 | 42.34148 | -70.76929 | 5242 ft | 295 kts | 56° |
| 2026-05-04 13:08 | 42.35552 | -70.74991 | 5897 ft | 287 kts | 24° |
| 2026-05-04 13:08 | 42.37367 | -70.73955 | 6553 ft | 283 kts | 12° |
| 2026-05-04 13:08 | 42.39259 | -70.73167 | 7246 ft | 283 kts | 10° |
| 2026-05-04 13:08 | 42.41154 | -70.72409 | 7899 ft | 286 kts | 10° |
| 2026-05-04 13:09 | 42.43081 | -70.71628 | 8537 ft | 290 kts | 10° |
| 2026-05-04 13:09 | 42.45013 | -70.70899 | 9177 ft | 292 kts | 7° |
| 2026-05-04 13:09 | 42.47017 | -70.70272 | 9813 ft | 295 kts | 5° |
| 2026-05-04 13:09 | 42.49050 | -70.69668 | 10248 ft | 305 kts | 5° |
| 2026-05-04 13:10 | 42.51189 | -70.69040 | 10471 ft | 322 kts | 6° |
| 2026-05-04 13:10 | 42.53438 | -70.68374 | 10685 ft | 339 kts | 6° |
| 2026-05-04 13:10 | 42.55766 | -70.67680 | 10888 ft | 355 kts | 6° |
| 2026-05-04 13:10 | 42.58232 | -70.66940 | 11125 ft | 370 kts | 6° |
| 2026-05-04 13:11 | 42.60789 | -70.66169 | 11506 ft | 379 kts | 7° |
| 2026-05-04 13:11 | 42.63374 | -70.65385 | 12102 ft | 382 kts | 7° |
| 2026-05-04 13:11 | 42.65988 | -70.64591 | 12738 ft | 384 kts | 7° |
| 2026-05-04 13:11 | 42.68609 | -70.63874 | 13355 ft | 384 kts | 4° |
| 2026-05-04 13:12 | 42.71253 | -70.63271 | 13928 ft | 386 kts | 3° |
| 2026-05-04 13:12 | 42.73924 | -70.62676 | 14435 ft | 390 kts | 5° |
| 2026-05-04 13:12 | 42.76575 | -70.61723 | 14952 ft | 400 kts | 15° |
| 2026-05-04 13:12 | 42.79070 | -70.59936 | 15437 ft | 413 kts | 32° |
| 2026-05-04 13:13 | 42.81150 | -70.57232 | 15925 ft | 423 kts | 45° |
| 2026-05-04 13:13 | 42.82987 | -70.54051 | 16453 ft | 428 kts | 51° |
| 2026-05-04 13:13 | 42.84659 | -70.50656 | 16937 ft | 433 kts | 53° |
| 2026-05-04 13:13 | 42.86255 | -70.47161 | 17411 ft | 436 kts | 54° |
| 2026-05-04 13:14 | 42.87841 | -70.43619 | 17891 ft | 439 kts | 55° |
| 2026-05-04 13:14 | 42.89445 | -70.40062 | 18338 ft | 442 kts | 54° |
| 2026-05-04 13:14 | 42.91077 | -70.36499 | 18755 ft | 444 kts | 54° |
| 2026-05-04 13:14 | 42.92738 | -70.32927 | 19137 ft | 447 kts | 53° |
| 2026-05-04 13:15 | 42.94403 | -70.29381 | 19519 ft | 450 kts | 53° |
| 2026-05-04 13:15 | 42.96101 | -70.25783 | 19910 ft | 452 kts | 53° |
| 2026-05-04 13:15 | 42.97810 | -70.22168 | 20300 ft | 454 kts | 53° |
| 2026-05-04 13:15 | 42.99532 | -70.18524 | 20692 ft | 456 kts | 53° |
| 2026-05-04 13:16 | 43.01252 | -70.14875 | 21133 ft | 458 kts | 53° |
| 2026-05-04 13:16 | 43.02983 | -70.11199 | 21498 ft | 460 kts | 54° |
| 2026-05-04 13:16 | 43.04718 | -70.07506 | 21855 ft | 463 kts | 54° |
| 2026-05-04 13:16 | 43.06450 | -70.03816 | 22243 ft | 465 kts | 54° |
| 2026-05-04 13:17 | 43.08200 | -70.00080 | 22592 ft | 468 kts | 54° |
| 2026-05-04 13:17 | 43.09965 | -69.96305 | 22966 ft | 470 kts | 54° |
| 2026-05-04 13:17 | 43.11731 | -69.92526 | 23319 ft | 472 kts | 54° |
| 2026-05-04 13:17 | 43.13512 | -69.88708 | 23652 ft | 475 kts | 54° |
| 2026-05-04 13:18 | 43.15277 | -69.84920 | 23949 ft | 477 kts | 54° |
| 2026-05-04 13:18 | 43.17062 | -69.81085 | 24285 ft | 478 kts | 54° |
| 2026-05-04 13:18 | 43.18860 | -69.77214 | 24582 ft | 481 kts | 54° |
| 2026-05-04 13:18 | 43.20663 | -69.73332 | 24841 ft | 484 kts | 54° |
| 2026-05-04 13:19 | 43.22453 | -69.69472 | 25142 ft | 486 kts | 54° |
| 2026-05-04 13:19 | 43.23680 | -69.66822 | 25335 ft | 487 kts | 54° |
| 2026-05-04 13:19 | 43.26094 | -69.61601 | 25731 ft | 490 kts | 54° |
| 2026-05-04 13:19 | 43.27931 | -69.57623 | 26018 ft | 492 kts | 54° |
| 2026-05-04 13:20 | 43.29766 | -69.53643 | 26299 ft | 494 kts | 54° |
| 2026-05-04 13:20 | 43.31591 | -69.49679 | 26577 ft | 497 kts | 54° |
| 2026-05-04 13:20 | 43.33440 | -69.45658 | 26850 ft | 499 kts | 54° |
| 2026-05-04 13:20 | 43.35298 | -69.41614 | 27122 ft | 502 kts | 54° |
| 2026-05-04 13:21 | 43.37161 | -69.37549 | 27407 ft | 504 kts | 54° |
| 2026-05-04 13:21 | 43.39036 | -69.33456 | 27669 ft | 506 kts | 54° |
| 2026-05-04 13:21 | 43.40909 | -69.29359 | 27993 ft | 506 kts | 54° |
| 2026-05-04 13:21 | 43.42789 | -69.25242 | 28274 ft | 508 kts | 54° |
| 2026-05-04 13:22 | 43.44671 | -69.21114 | 28517 ft | 510 kts | 54° |
| 2026-05-04 13:22 | 43.46561 | -69.16964 | 28779 ft | 513 kts | 54° |
| 2026-05-04 13:22 | 43.47816 | -69.14205 | 29005 ft | 513 kts | 54° |
| 2026-05-04 13:22 | 43.50324 | -69.08679 | 29508 ft | 512 kts | 54° |
| 2026-05-04 13:23 | 43.52212 | -69.04513 | 29872 ft | 511 kts | 54° |
| 2026-05-04 13:23 | 43.53459 | -69.01758 | 30094 ft | 511 kts | 54° |
| 2026-05-04 13:23 | 43.55961 | -68.96226 | 30448 ft | 511 kts | 54° |
| 2026-05-04 13:23 | 43.57846 | -68.92050 | 30690 ft | 512 kts | 54° |
| 2026-05-04 13:24 | 43.59115 | -68.89238 | 30895 ft | 512 kts | 54° |
| 2026-05-04 13:24 | 43.60976 | -68.85106 | 31149 ft | 513 kts | 54° |
| 2026-05-04 13:24 | 43.62863 | -68.80911 | 31394 ft | 513 kts | 54° |
| 2026-05-04 13:25 | 43.66636 | -68.72504 | 31890 ft | 514 kts | 55° |
| 2026-05-04 13:25 | 43.68517 | -68.68302 | 32129 ft | 514 kts | 55° |
| 2026-05-04 13:25 | 43.70399 | -68.64093 | 32363 ft | 515 kts | 55° |
| 2026-05-04 13:25 | 43.72283 | -68.59875 | 32599 ft | 516 kts | 55° |
| 2026-05-04 13:26 | 43.74166 | -68.55651 | 32851 ft | 516 kts | 56° |
| 2026-05-04 13:26 | 43.76052 | -68.51416 | 33104 ft | 516 kts | 56° |
| 2026-05-04 13:26 | 43.77913 | -68.47230 | 33312 ft | 517 kts | 56° |
| 2026-05-04 13:26 | 43.79796 | -68.42989 | 33521 ft | 517 kts | 56° |
| 2026-05-04 13:27 | 43.81679 | -68.38740 | 33728 ft | 518 kts | 56° |
| 2026-05-04 13:27 | 43.83571 | -68.34466 | 33930 ft | 518 kts | 56° |
| 2026-05-04 13:27 | 43.85450 | -68.30214 | 34095 ft | 519 kts | 56° |
| 2026-05-04 13:27 | 43.87341 | -68.25929 | 34280 ft | 519 kts | 56° |
| 2026-05-04 13:28 | 43.89221 | -68.21663 | 34470 ft | 518 kts | 56° |
| 2026-05-04 13:28 | 43.91100 | -68.17394 | 34643 ft | 519 kts | 56° |
| 2026-05-04 13:28 | 43.92978 | -68.13119 | 34795 ft | 519 kts | 57° |
| 2026-05-04 13:28 | 43.94859 | -68.08832 | 34892 ft | 521 kts | 57° |
| 2026-05-04 13:29 | 43.96749 | -68.04518 | 35004 ft | 522 kts | 57° |
| 2026-05-04 13:29 | 43.98614 | -68.00255 | 35171 ft | 522 kts | 57° |
| 2026-05-04 13:29 | 44.00497 | -67.95944 | 35361 ft | 522 kts | 57° |
| 2026-05-04 13:29 | 44.02381 | -67.91624 | 35536 ft | 521 kts | 57° |
| 2026-05-04 13:30 | 44.04262 | -67.87302 | 35688 ft | 522 kts | 57° |
| 2026-05-04 13:30 | 44.06145 | -67.82972 | 35804 ft | 523 kts | 57° |
| 2026-05-04 13:30 | 44.08024 | -67.78643 | 35934 ft | 523 kts | 57° |
| 2026-05-04 13:30 | 44.09903 | -67.74310 | 36076 ft | 523 kts | 57° |
| 2026-05-04 13:31 | 44.11764 | -67.70010 | 36207 ft | 523 kts | 57° |
| 2026-05-04 13:31 | 44.13640 | -67.65669 | 36374 ft | 523 kts | 57° |
| 2026-05-04 13:31 | 44.15512 | -67.61333 | 36595 ft | 521 kts | 57° |
| 2026-05-04 13:31 | 44.17376 | -67.57005 | 36754 ft | 521 kts | 57° |
| 2026-05-04 13:32 | 44.21114 | -67.48312 | 36847 ft | 524 kts | 57° |
| 2026-05-04 13:32 | 44.24838 | -67.39624 | 36848 ft | 524 kts | 57° |
| 2026-05-04 13:33 | 44.28578 | -67.30870 | 36853 ft | 524 kts | 58° |
| 2026-05-04 13:33 | 44.32299 | -67.22136 | 36851 ft | 522 kts | 58° |
| 2026-05-04 13:34 | 44.36007 | -67.13405 | 36846 ft | 522 kts | 58° |
| 2026-05-04 13:34 | 44.39705 | -67.04673 | 36837 ft | 522 kts | 58° |
| 2026-05-04 13:35 | 44.44934 | -66.91369 | 36829 ft | 523 kts | 62° |
| 2026-05-04 13:36 | 44.48168 | -66.82226 | 36823 ft | 523 kts | 63° |
| 2026-05-04 13:36 | 44.51397 | -66.73085 | 36823 ft | 524 kts | 62° |
| 2026-05-04 13:37 | 44.54639 | -66.63985 | 36819 ft | 523 kts | 62° |
| 2026-05-04 13:37 | 44.57897 | -66.54858 | 36818 ft | 522 kts | 62° |
| 2026-05-04 13:38 | 44.61122 | -66.45803 | 36810 ft | 522 kts | 62° |
| 2026-05-04 13:38 | 44.64364 | -66.36667 | 36796 ft | 522 kts | 62° |
| 2026-05-04 13:39 | 44.67590 | -66.27541 | 36798 ft | 521 kts | 62° |
| 2026-05-04 13:39 | 44.70809 | -66.18405 | 36799 ft | 521 kts | 62° |
| 2026-05-04 13:40 | 44.74000 | -66.09314 | 36804 ft | 521 kts | 63° |
| 2026-05-04 13:40 | 44.77199 | -66.00173 | 36804 ft | 521 kts | 63° |
| 2026-05-04 13:41 | 44.80394 | -65.91012 | 36813 ft | 520 kts | 63° |
| 2026-05-04 13:41 | 44.83574 | -65.81863 | 36810 ft | 520 kts | 63° |
| 2026-05-04 13:42 | 44.88316 | -65.68158 | 36786 ft | 520 kts | 63° |
| 2026-05-04 13:42 | 44.91485 | -65.58963 | 36807 ft | 521 kts | 63° |
| 2026-05-04 13:43 | 44.94650 | -65.49747 | 36783 ft | 521 kts | 63° |
| 2026-05-04 13:43 | 44.97799 | -65.40545 | 36777 ft | 520 kts | 63° |
| 2026-05-04 13:44 | 45.00923 | -65.31386 | 36763 ft | 520 kts | 63° |
| 2026-05-04 13:44 | 45.04061 | -65.22154 | 36773 ft | 520 kts | 63° |
| 2026-05-04 13:45 | 45.07183 | -65.12936 | 36749 ft | 518 kts | 63° |
| 2026-05-04 13:45 | 45.10296 | -65.03714 | 36734 ft | 518 kts | 63° |
| 2026-05-04 13:46 | 45.13382 | -64.94540 | 36735 ft | 519 kts | 63° |
| 2026-05-04 13:46 | 45.16483 | -64.85289 | 36730 ft | 519 kts | 63° |
| 2026-05-04 13:47 | 45.19572 | -64.76040 | 36718 ft | 518 kts | 64° |
| 2026-05-04 13:47 | 45.22630 | -64.66852 | 36714 ft | 517 kts | 64° |
| 2026-05-04 13:48 | 45.25698 | -64.57602 | 36703 ft | 517 kts | 64° |
| 2026-05-04 13:48 | 45.28756 | -64.48351 | 36699 ft | 517 kts | 64° |
| 2026-05-04 13:49 | 45.31812 | -64.39072 | 36689 ft | 518 kts | 64° |
| 2026-05-04 13:49 | 45.34845 | -64.29833 | 36672 ft | 518 kts | 64° |
| 2026-05-04 13:50 | 45.37887 | -64.20531 | 36671 ft | 518 kts | 64° |
| 2026-05-04 13:50 | 45.40922 | -64.11216 | 36652 ft | 518 kts | 64° |
| 2026-05-04 13:51 | 45.43949 | -64.01895 | 36639 ft | 518 kts | 64° |
| 2026-05-04 13:51 | 45.46965 | -63.92575 | 36636 ft | 518 kts | 64° |
| 2026-05-04 13:52 | 45.51463 | -63.78609 | 36622 ft | 518 kts | 65° |
| 2026-05-04 13:53 | 45.54465 | -63.69248 | 36624 ft | 518 kts | 65° |
| 2026-05-04 13:53 | 45.57434 | -63.59956 | 36622 ft | 517 kts | 65° |
| 2026-05-04 13:54 | 45.61902 | -63.45909 | 36606 ft | 517 kts | 65° |
| 2026-05-04 13:55 | 45.66333 | -63.31903 | 36592 ft | 517 kts | 65° |
| 2026-05-04 13:55 | 45.70768 | -63.17807 | 36574 ft | 517 kts | 65° |
| 2026-05-04 13:56 | 45.73720 | -63.08379 | 36586 ft | 519 kts | 65° |
| 2026-05-04 13:57 | 45.78122 | -62.94260 | 36593 ft | 520 kts | 65° |
| 2026-05-04 13:58 | 45.84001 | -62.75279 | 36567 ft | 520 kts | 65° |
| 2026-05-04 13:58 | 45.88378 | -62.61055 | 36533 ft | 520 kts | 66° |
| 2026-05-04 13:59 | 45.91297 | -62.51523 | 36545 ft | 521 kts | 66° |
| 2026-05-04 14:00 | 45.95648 | -62.37249 | 36544 ft | 522 kts | 66° |
| 2026-05-04 14:00 | 46.00004 | -62.22879 | 36527 ft | 522 kts | 66° |
| 2026-05-04 14:01 | 46.02879 | -62.13347 | 36535 ft | 522 kts | 66° |
| 2026-05-04 14:02 | 46.07204 | -61.98944 | 36539 ft | 521 kts | 66° |
| 2026-05-04 14:02 | 46.10075 | -61.89335 | 36500 ft | 521 kts | 66° |
| 2026-05-04 14:03 | 46.12913 | -61.79800 | 36497 ft | 521 kts | 67° |
| 2026-05-04 14:03 | 46.15761 | -61.70195 | 36512 ft | 521 kts | 67° |
| 2026-05-04 14:04 | 46.20032 | -61.55721 | 36474 ft | 521 kts | 67° |
| 2026-05-04 14:04 | 46.22868 | -61.46065 | 36450 ft | 522 kts | 67° |
| 2026-05-04 14:05 | 46.27087 | -61.31626 | 36420 ft | 523 kts | 67° |
| 2026-05-04 14:06 | 46.29912 | -61.21910 | 36411 ft | 525 kts | 67° |
| 2026-05-04 14:06 | 46.32745 | -61.12126 | 36411 ft | 528 kts | 67° |
| 2026-05-04 14:07 | 46.35579 | -61.02303 | 36366 ft | 529 kts | 67° |
| 2026-05-04 14:07 | 46.38406 | -60.92466 | 36370 ft | 529 kts | 68° |
| 2026-05-04 14:08 | 46.41228 | -60.82605 | 36336 ft | 530 kts | 68° |
| 2026-05-04 14:08 | 46.44046 | -60.72717 | 36329 ft | 530 kts | 68° |
| 2026-05-04 14:09 | 46.48236 | -60.57940 | 36311 ft | 529 kts | 68° |
| 2026-05-04 14:10 | 46.51930 | -60.44845 | 36282 ft | 521 kts | 69° |
| 2026-05-04 14:10 | 46.55107 | -60.33521 | 36290 ft | 519 kts | 69° |
| 2026-05-04 14:11 | 46.57822 | -60.23797 | 36273 ft | 519 kts | 69° |
| 2026-05-04 14:11 | 46.61430 | -60.10817 | 36278 ft | 519 kts | 69° |
| 2026-05-04 14:12 | 46.64126 | -60.01071 | 36274 ft | 518 kts | 69° |
| 2026-05-04 14:13 | 46.68134 | -59.86512 | 36279 ft | 518 kts | 69° |
| 2026-05-04 14:13 | 46.70806 | -59.76755 | 36280 ft | 518 kts | 69° |
| 2026-05-04 14:14 | 46.73472 | -59.66983 | 36281 ft | 520 kts | 70° |
| 2026-05-04 14:14 | 46.77472 | -59.52241 | 36275 ft | 522 kts | 70° |
| 2026-05-04 14:15 | 46.82771 | -59.32572 | 36245 ft | 521 kts | 70° |
| 2026-05-04 14:16 | 46.86732 | -59.17759 | 36220 ft | 521 kts | 70° |
| 2026-05-04 14:17 | 46.90674 | -59.02931 | 36242 ft | 524 kts | 70° |
| 2026-05-04 14:18 | 46.94624 | -58.87969 | 36227 ft | 525 kts | 71° |
| 2026-05-04 14:19 | 46.99849 | -58.68032 | 36218 ft | 526 kts | 70° |
| 2026-05-04 14:19 | 47.02454 | -58.58028 | 36215 ft | 524 kts | 71° |
| 2026-05-04 14:20 | 47.05049 | -58.48021 | 36199 ft | 525 kts | 71° |
| 2026-05-04 14:20 | 47.07638 | -58.37990 | 36183 ft | 526 kts | 71° |
| 2026-05-04 14:21 | 47.11500 | -58.22951 | 36190 ft | 527 kts | 71° |
| 2026-05-04 14:21 | 47.14078 | -58.12858 | 36168 ft | 526 kts | 71° |
| 2026-05-04 14:22 | 47.16624 | -58.02845 | 36161 ft | 526 kts | 72° |
| 2026-05-04 14:22 | 47.19174 | -57.92766 | 36165 ft | 522 kts | 72° |
| 2026-05-04 14:23 | 47.22938 | -57.77808 | 36154 ft | 522 kts | 72° |
| 2026-05-04 14:24 | 47.25450 | -57.67776 | 36163 ft | 524 kts | 73° |
| 2026-05-04 14:24 | 47.27968 | -57.57671 | 36157 ft | 524 kts | 73° |
| 2026-05-04 14:25 | 47.30450 | -57.47670 | 36169 ft | 520 kts | 73° |
| 2026-05-04 14:25 | 47.34154 | -57.32662 | 36167 ft | 518 kts | 73° |
| 2026-05-04 14:26 | 47.36610 | -57.22649 | 36168 ft | 519 kts | 72° |
| 2026-05-04 14:26 | 47.39041 | -57.12698 | 36176 ft | 518 kts | 73° |
| 2026-05-04 14:27 | 47.41476 | -57.02689 | 36160 ft | 516 kts | 74° |
| 2026-05-04 14:27 | 47.43895 | -56.92694 | 36173 ft | 517 kts | 74° |
| 2026-05-04 14:28 | 47.46313 | -56.82651 | 36165 ft | 518 kts | 73° |
| 2026-05-04 14:28 | 47.48709 | -56.72663 | 36160 ft | 517 kts | 74° |
| 2026-05-04 14:29 | 47.53466 | -56.52708 | 36161 ft | 513 kts | 74° |
| 2026-05-04 14:30 | 47.55821 | -56.42755 | 36153 ft | 513 kts | 74° |
| 2026-05-04 14:31 | 47.59349 | -56.27761 | 36128 ft | 514 kts | 75° |
| 2026-05-04 14:32 | 47.64002 | -56.07826 | 36148 ft | 511 kts | 75° |
| 2026-05-04 14:32 | 47.66315 | -55.97849 | 36155 ft | 511 kts | 75° |
| 2026-05-04 14:33 | 47.68619 | -55.87862 | 36172 ft | 511 kts | 75° |
| 2026-05-04 14:33 | 47.70915 | -55.77863 | 36166 ft | 510 kts | 76° |
| 2026-05-04 14:34 | 47.73198 | -55.67880 | 36185 ft | 510 kts | 76° |
| 2026-05-04 14:34 | 47.75467 | -55.57907 | 36160 ft | 509 kts | 76° |
| 2026-05-04 14:35 | 47.77714 | -55.47980 | 36193 ft | 510 kts | 76° |
| 2026-05-04 14:35 | 47.79967 | -55.37988 | 36245 ft | 509 kts | 76° |
| 2026-05-04 14:36 | 47.82216 | -55.27966 | 36252 ft | 509 kts | 76° |
| 2026-05-04 14:36 | 47.84445 | -55.17979 | 36267 ft | 508 kts | 76° |
| 2026-05-04 14:37 | 47.86654 | -55.08039 | 36305 ft | 508 kts | 76° |
| 2026-05-04 14:37 | 47.88869 | -54.98023 | 36322 ft | 508 kts | 77° |
| 2026-05-04 14:38 | 47.91075 | -54.87999 | 36322 ft | 508 kts | 77° |
| 2026-05-04 14:38 | 47.93271 | -54.77977 | 36360 ft | 509 kts | 77° |
| 2026-05-04 14:39 | 47.95462 | -54.67924 | 36360 ft | 510 kts | 77° |
| 2026-05-04 14:39 | 47.97648 | -54.57847 | 36348 ft | 510 kts | 77° |
| 2026-05-04 14:40 | 48.00900 | -54.42770 | 36382 ft | 509 kts | 77° |
| 2026-05-04 14:40 | 48.03050 | -54.32735 | 36380 ft | 509 kts | 77° |
| 2026-05-04 14:41 | 48.05206 | -54.22627 | 36401 ft | 509 kts | 77° |
| 2026-05-04 14:42 | 48.09485 | -54.02412 | 36395 ft | 510 kts | 77° |
| 2026-05-04 14:42 | 48.11615 | -53.92272 | 36422 ft | 511 kts | 77° |
| 2026-05-04 14:43 | 48.13722 | -53.82194 | 36423 ft | 511 kts | 77° |
| 2026-05-04 14:43 | 48.15836 | -53.72030 | 36425 ft | 510 kts | 78° |
| 2026-05-04 14:44 | 48.17940 | -53.61861 | 36439 ft | 510 kts | 78° |
| 2026-05-04 14:44 | 48.20033 | -53.51697 | 36442 ft | 510 kts | 78° |
| 2026-05-04 14:45 | 48.22113 | -53.41550 | 36442 ft | 509 kts | 78° |
| 2026-05-04 14:45 | 48.24169 | -53.31458 | 36450 ft | 509 kts | 78° |
| 2026-05-04 14:46 | 48.26233 | -53.21272 | 36470 ft | 510 kts | 78° |
| 2026-05-04 14:46 | 48.28294 | -53.11055 | 36453 ft | 510 kts | 79° |
| 2026-05-04 14:47 | 48.30328 | -53.00923 | 36468 ft | 509 kts | 79° |
| 2026-05-04 14:47 | 48.32363 | -52.90731 | 36467 ft | 509 kts | 79° |
| 2026-05-04 14:48 | 48.34388 | -52.80533 | 36474 ft | 509 kts | 79° |
| 2026-05-04 14:48 | 48.36404 | -52.70327 | 36474 ft | 509 kts | 79° |
| 2026-05-04 14:49 | 48.38395 | -52.60195 | 36493 ft | 508 kts | 79° |
| 2026-05-04 14:49 | 48.40389 | -52.50001 | 36497 ft | 506 kts | 79° |
| 2026-05-04 14:50 | 48.42370 | -52.39813 | 36500 ft | 506 kts | 79° |
| 2026-05-04 14:50 | 48.44339 | -52.29625 | 36510 ft | 506 kts | 79° |
| 2026-05-04 14:51 | 48.46285 | -52.19508 | 36487 ft | 506 kts | 80° |
| 2026-05-04 14:51 | 48.48235 | -52.09332 | 36529 ft | 503 kts | 80° |
| 2026-05-04 14:52 | 48.50286 | -51.99240 | 36542 ft | 506 kts | 76° |
| 2026-05-04 14:52 | 48.52776 | -51.89298 | 36545 ft | 507 kts | 75° |
| 2026-05-04 14:53 | 48.55351 | -51.79368 | 36548 ft | 508 kts | 74° |
| 2026-05-04 14:53 | 48.57932 | -51.69442 | 36548 ft | 506 kts | 75° |
| 2026-05-04 14:54 | 48.60487 | -51.59544 | 36568 ft | 506 kts | 75° |
| 2026-05-04 14:54 | 48.63018 | -51.49664 | 36577 ft | 506 kts | 76° |
| 2026-05-04 14:55 | 48.65550 | -51.39728 | 36587 ft | 506 kts | 76° |
| 2026-05-04 14:55 | 48.68074 | -51.29786 | 36592 ft | 506 kts | 76° |
| 2026-05-04 14:56 | 48.70587 | -51.19847 | 36606 ft | 504 kts | 76° |
| 2026-05-04 14:56 | 48.73083 | -51.09924 | 36606 ft | 504 kts | 76° |
| 2026-05-04 14:57 | 48.75570 | -50.99994 | 36608 ft | 504 kts | 76° |
| 2026-05-04 14:57 | 48.78035 | -50.90111 | 36594 ft | 504 kts | 77° |
| 2026-05-04 14:58 | 48.80507 | -50.80161 | 36625 ft | 502 kts | 77° |
| 2026-05-04 14:58 | 48.82545 | -50.71919 | 36630 ft | 502 kts | 77° |
| 2026-05-04 14:59 | 48.85405 | -50.60295 | 36632 ft | 502 kts | 77° |
| 2026-05-04 15:00 | 48.89038 | -50.45449 | 36646 ft | 502 kts | 77° |
| 2026-05-04 15:00 | 48.91069 | -50.37110 | 36650 ft | 502 kts | 77° |
| 2026-05-04 15:01 | 48.94674 | -50.22225 | 36647 ft | 502 kts | 77° |
| 2026-05-04 15:01 | 48.97077 | -50.12245 | 36654 ft | 502 kts | 77° |
| 2026-05-04 15:02 | 48.99474 | -50.02248 | 36657 ft | 501 kts | 78° |
| 2026-05-04 15:02 | 49.01905 | -49.92366 | 36658 ft | 501 kts | 77° |
| 2026-05-04 15:03 | 49.04410 | -49.82449 | 36665 ft | 501 kts | 77° |
| 2026-05-04 15:03 | 49.06914 | -49.72508 | 36672 ft | 502 kts | 77° |
| 2026-05-04 15:04 | 49.09385 | -49.62614 | 36670 ft | 502 kts | 77° |
| 2026-05-04 15:04 | 49.11861 | -49.52644 | 36674 ft | 500 kts | 78° |
| 2026-05-04 15:05 | 49.14316 | -49.42704 | 36677 ft | 499 kts | 78° |
| 2026-05-04 15:05 | 49.16760 | -49.32759 | 36688 ft | 499 kts | 78° |
| 2026-05-04 15:06 | 49.19180 | -49.22873 | 36692 ft | 499 kts | 78° |
| 2026-05-04 15:07 | 49.22813 | -49.07949 | 36693 ft | 498 kts | 78° |
| 2026-05-04 15:07 | 49.25218 | -48.98017 | 36708 ft | 497 kts | 78° |
| 2026-05-04 15:08 | 49.27617 | -48.88057 | 36710 ft | 497 kts | 78° |
| 2026-05-04 15:08 | 49.30005 | -48.78100 | 36665 ft | 497 kts | 78° |
| 2026-05-04 15:09 | 49.32383 | -48.68139 | 36712 ft | 497 kts | 78° |
| 2026-05-04 15:09 | 49.34732 | -48.58265 | 36722 ft | 496 kts | 79° |
| 2026-05-04 15:10 | 49.38260 | -48.43333 | 36725 ft | 495 kts | 79° |
| 2026-05-04 15:11 | 49.41758 | -48.28427 | 36718 ft | 495 kts | 79° |
| 2026-05-04 15:11 | 49.44086 | -48.18447 | 36724 ft | 496 kts | 79° |
| 2026-05-04 15:12 | 49.46407 | -48.08458 | 36739 ft | 496 kts | 79° |
| 2026-05-04 15:12 | 49.48703 | -47.98528 | 36738 ft | 495 kts | 79° |
| 2026-05-04 15:13 | 49.51005 | -47.88525 | 36733 ft | 495 kts | 79° |
| 2026-05-04 15:13 | 49.53297 | -47.78519 | 36744 ft | 496 kts | 79° |
| 2026-05-04 15:14 | 49.55584 | -47.68481 | 36758 ft | 497 kts | 79° |
| 2026-05-04 15:14 | 49.57868 | -47.58415 | 36762 ft | 497 kts | 79° |
| 2026-05-04 15:15 | 49.60132 | -47.48395 | 36756 ft | 497 kts | 79° |
| 2026-05-04 15:15 | 49.62401 | -47.38299 | 36762 ft | 498 kts | 79° |
| 2026-05-04 15:16 | 49.65791 | -47.23123 | 36776 ft | 498 kts | 79° |
| 2026-05-04 15:17 | 49.69147 | -47.07994 | 36780 ft | 498 kts | 79° |
| 2026-05-04 15:17 | 49.72500 | -46.92764 | 36784 ft | 500 kts | 78° |
| 2026-05-04 15:18 | 49.74735 | -46.82540 | 36792 ft | 502 kts | 78° |
| 2026-05-04 15:19 | 49.78067 | -46.67223 | 36790 ft | 503 kts | 78° |
| 2026-05-04 15:19 | 49.81418 | -46.51690 | 36795 ft | 508 kts | 78° |
| 2026-05-04 15:20 | 49.83643 | -46.41319 | 36815 ft | 511 kts | 78° |
| 2026-05-04 15:20 | 49.85878 | -46.30854 | 36823 ft | 511 kts | 78° |
| 2026-05-04 15:21 | 49.88103 | -46.20380 | 36820 ft | 511 kts | 78° |
| 2026-05-04 15:22 | 49.91406 | -46.04723 | 36842 ft | 511 kts | 78° |
| 2026-05-04 15:22 | 49.94698 | -45.88992 | 36851 ft | 510 kts | 78° |
| 2026-05-04 15:23 | 49.96889 | -45.78459 | 36847 ft | 510 kts | 78° |
| 2026-05-04 15:23 | 49.99046 | -45.68027 | 36847 ft | 510 kts | 78° |
| 2026-05-04 15:24 | 50.03392 | -45.46828 | 36864 ft | 520 kts | 77° |
| 2026-05-04 15:25 | 50.05563 | -45.36174 | 36879 ft | 519 kts | 77° |
| 2026-05-04 15:26 | 50.08814 | -45.20109 | 36900 ft | 518 kts | 77° |
| 2026-05-04 15:26 | 50.12050 | -45.03962 | 36911 ft | 522 kts | 77° |
| 2026-05-04 15:27 | 50.15267 | -44.87788 | 36924 ft | 522 kts | 77° |
| 2026-05-04 15:28 | 50.18474 | -44.71529 | 36941 ft | 522 kts | 77° |
| 2026-05-04 15:29 | 50.21674 | -44.55158 | 36914 ft | 526 kts | 76° |
| 2026-05-04 15:30 | 50.29081 | -44.16737 | 36985 ft | 530 kts | 76° |
| 2026-05-04 15:31 | 50.32236 | -44.00136 | 36983 ft | 530 kts | 76° |
| 2026-05-04 15:32 | 50.37426 | -43.72491 | 37018 ft | 530 kts | 75° |
| 2026-05-04 15:34 | 50.42543 | -43.44828 | 37023 ft | 530 kts | 76° |
| 2026-05-04 15:34 | 50.45590 | -43.28153 | 37043 ft | 529 kts | 75° |
| 2026-05-04 15:35 | 50.48610 | -43.11479 | 37040 ft | 528 kts | 75° |
| 2026-05-04 15:36 | 50.51588 | -42.94882 | 37054 ft | 528 kts | 75° |
| 2026-05-04 15:36 | 50.53572 | -42.83740 | 37081 ft | 528 kts | 75° |
| 2026-05-04 15:37 | 50.55541 | -42.72610 | 37057 ft | 527 kts | 75° |
| 2026-05-04 15:37 | 50.57497 | -42.61492 | 37087 ft | 527 kts | 75° |
| 2026-05-04 15:38 | 50.59433 | -42.50416 | 37077 ft | 527 kts | 75° |
| 2026-05-04 15:38 | 50.61369 | -42.39268 | 37105 ft | 527 kts | 75° |
| 2026-05-04 15:39 | 50.63292 | -42.28120 | 37113 ft | 526 kts | 75° |
| 2026-05-04 15:40 | 50.66153 | -42.11414 | 37095 ft | 525 kts | 75° |
| 2026-05-04 15:40 | 50.68033 | -42.00345 | 37132 ft | 526 kts | 75° |
| 2026-05-04 15:41 | 50.69919 | -41.89167 | 37137 ft | 526 kts | 74° |
| 2026-05-04 15:41 | 50.71777 | -41.78083 | 37132 ft | 525 kts | 74° |
| 2026-05-04 15:42 | 50.73636 | -41.66925 | 37147 ft | 525 kts | 74° |
| 2026-05-04 15:42 | 50.75485 | -41.55759 | 37142 ft | 525 kts | 74° |
| 2026-05-04 15:43 | 50.77322 | -41.44584 | 37154 ft | 525 kts | 75° |
| 2026-05-04 15:43 | 50.79147 | -41.33411 | 37160 ft | 525 kts | 75° |
| 2026-05-04 15:44 | 50.80952 | -41.22291 | 37162 ft | 525 kts | 75° |
| 2026-05-04 15:44 | 50.82754 | -41.11103 | 37170 ft | 525 kts | 74° |
| 2026-05-04 15:45 | 50.84553 | -40.99870 | 37170 ft | 524 kts | 75° |
| 2026-05-04 15:45 | 50.86323 | -40.88735 | 37170 ft | 523 kts | 74° |
| 2026-05-04 15:46 | 50.88088 | -40.77562 | 37189 ft | 521 kts | 74° |
| 2026-05-04 15:46 | 50.89825 | -40.66488 | 37181 ft | 521 kts | 74° |
| 2026-05-04 15:47 | 50.91566 | -40.55318 | 37183 ft | 521 kts | 74° |
| 2026-05-04 15:47 | 50.93002 | -40.46043 | 37190 ft | 521 kts | 74° |
| 2026-05-04 15:48 | 50.95003 | -40.33027 | 37206 ft | 522 kts | 73° |
| 2026-05-04 15:48 | 50.97278 | -40.18105 | 37214 ft | 522 kts | 74° |
| 2026-05-04 15:49 | 50.98975 | -40.06882 | 37221 ft | 522 kts | 74° |
| 2026-05-04 15:49 | 51.01087 | -39.95914 | 37243 ft | 518 kts | 65° |
| 2026-05-04 15:50 | 51.03680 | -39.85258 | 37224 ft | 514 kts | 64° |
| 2026-05-04 15:50 | 51.06322 | -39.74782 | 37233 ft | 513 kts | 63° |
| 2026-05-04 15:51 | 51.08979 | -39.64231 | 37238 ft | 513 kts | 64° |
| 2026-05-04 15:51 | 51.11615 | -39.53652 | 37261 ft | 514 kts | 64° |
| 2026-05-04 15:52 | 51.14226 | -39.43086 | 37254 ft | 510 kts | 63° |
| 2026-05-04 15:52 | 51.16787 | -39.32665 | 37260 ft | 508 kts | 63° |
| 2026-05-04 15:53 | 51.19357 | -39.22171 | 37260 ft | 508 kts | 63° |
| 2026-05-04 15:53 | 51.21921 | -39.11650 | 37264 ft | 508 kts | 64° |
| 2026-05-04 15:54 | 51.24469 | -39.01136 | 37270 ft | 507 kts | 63° |
| 2026-05-04 15:54 | 51.26999 | -38.90652 | 37277 ft | 506 kts | 63° |
| 2026-05-04 15:55 | 51.28264 | -38.85392 | 37383 ft | 506 kts | 63° |
| 2026-05-04 15:55 | 51.29524 | -38.80141 | 37583 ft | 506 kts | 63° |
| 2026-05-04 15:55 | 51.30779 | -38.74897 | 37798 ft | 505 kts | 63° |
| 2026-05-04 15:55 | 51.32028 | -38.69661 | 38003 ft | 504 kts | 63° |
| 2026-05-04 15:56 | 51.33273 | -38.64432 | 38217 ft | 503 kts | 63° |
| 2026-05-04 15:56 | 51.34514 | -38.59208 | 38275 ft | 502 kts | 63° |
| 2026-05-04 15:56 | 51.36957 | -38.48879 | 38284 ft | 497 kts | 63° |
| 2026-05-04 15:57 | 51.39398 | -38.38520 | 38293 ft | 497 kts | 63° |
| 2026-05-04 15:57 | 51.41833 | -38.28145 | 38293 ft | 497 kts | 63° |
| 2026-05-04 15:58 | 51.44255 | -38.17766 | 38316 ft | 497 kts | 63° |
| 2026-05-04 15:58 | 51.46661 | -38.07406 | 38292 ft | 499 kts | 63° |
| 2026-05-04 15:59 | 51.49080 | -37.96940 | 38297 ft | 499 kts | 63° |
| 2026-05-04 15:59 | 51.51474 | -37.86525 | 38318 ft | 500 kts | 63° |
| 2026-05-04 16:00 | 51.53873 | -37.76040 | 38323 ft | 500 kts | 63° |
| 2026-05-04 16:00 | 51.56271 | -37.65512 | 38322 ft | 504 kts | 63° |
| 2026-05-04 16:01 | 51.58678 | -37.54890 | 38319 ft | 505 kts | 63° |
| 2026-05-04 16:01 | 51.61069 | -37.44274 | 38328 ft | 505 kts | 63° |
| 2026-05-04 16:02 | 51.63438 | -37.33708 | 38331 ft | 505 kts | 63° |
| 2026-05-04 16:03 | 51.66983 | -37.17786 | 38332 ft | 501 kts | 64° |
| 2026-05-04 16:03 | 51.69325 | -37.07210 | 38341 ft | 500 kts | 64° |
| 2026-05-04 16:04 | 51.71658 | -36.96622 | 38346 ft | 501 kts | 64° |
| 2026-05-04 16:04 | 51.75125 | -36.80791 | 38344 ft | 501 kts | 64° |
| 2026-05-04 16:05 | 51.77435 | -36.70169 | 38340 ft | 501 kts | 64° |
| 2026-05-04 16:06 | 51.80871 | -36.54266 | 38342 ft | 501 kts | 64° |
| 2026-05-04 16:07 | 51.85423 | -36.32996 | 38353 ft | 494 kts | 64° |
| 2026-05-04 16:08 | 51.89892 | -36.11932 | 38355 ft | 501 kts | 65° |
| 2026-05-04 16:09 | 51.95474 | -35.85261 | 38362 ft | 499 kts | 65° |
| 2026-05-04 16:10 | 51.99900 | -35.63872 | 38366 ft | 499 kts | 65° |
| 2026-05-04 16:11 | 52.04270 | -35.42522 | 38371 ft | 499 kts | 66° |
| 2026-05-04 16:12 | 52.10757 | -35.10400 | 38380 ft | 498 kts | 66° |
| 2026-05-04 16:13 | 52.15023 | -34.88990 | 38384 ft | 499 kts | 67° |
| 2026-05-04 16:14 | 52.19268 | -34.67435 | 38384 ft | 499 kts | 67° |
| 2026-05-04 16:16 | 52.24512 | -34.40483 | 38385 ft | 499 kts | 68° |
| 2026-05-04 16:17 | 52.29702 | -34.13419 | 38394 ft | 499 kts | 68° |
| 2026-05-04 16:18 | 52.33790 | -33.91831 | 38396 ft | 498 kts | 69° |
| 2026-05-04 16:19 | 52.38861 | -33.64696 | 38400 ft | 498 kts | 69° |
| 2026-05-04 16:20 | 52.43865 | -33.37531 | 38405 ft | 499 kts | 70° |
| 2026-05-04 16:22 | 52.48815 | -33.10257 | 38396 ft | 499 kts | 70° |
| 2026-05-04 16:23 | 52.54656 | -32.77531 | 38411 ft | 498 kts | 71° |
| 2026-05-04 16:25 | 52.60404 | -32.44737 | 38405 ft | 497 kts | 71° |
| 2026-05-04 16:26 | 52.66993 | -32.06384 | 38407 ft | 497 kts | 72° |
| 2026-05-04 16:28 | 52.71626 | -31.78898 | 38404 ft | 498 kts | 72° |
| 2026-05-04 16:29 | 52.77988 | -31.40434 | 38409 ft | 496 kts | 72° |
| 2026-05-04 16:31 | 52.82448 | -31.12941 | 38408 ft | 496 kts | 73° |
| 2026-05-04 16:32 | 52.87711 | -30.79898 | 38406 ft | 495 kts | 73° |
| 2026-05-04 16:33 | 52.91176 | -30.57783 | 38403 ft | 495 kts | 73° |
| 2026-05-04 16:34 | 52.93732 | -30.41279 | 38404 ft | 495 kts | 74° |
| 2026-05-04 16:35 | 52.98512 | -30.09944 | 38404 ft | 494 kts | 74° |
| 2026-05-04 16:36 | 53.00984 | -29.93359 | 38395 ft | 494 kts | 75° |
| 2026-05-04 16:37 | 53.03370 | -29.76686 | 38394 ft | 494 kts | 75° |
| 2026-05-04 16:38 | 53.06507 | -29.54502 | 38402 ft | 494 kts | 75° |
| 2026-05-04 16:39 | 53.10392 | -29.26639 | 38394 ft | 494 kts | 75° |
| 2026-05-04 16:40 | 53.13442 | -29.04396 | 38391 ft | 494 kts | 76° |
| 2026-05-04 16:41 | 53.17197 | -28.76529 | 38389 ft | 494 kts | 76° |
| 2026-05-04 16:43 | 53.20890 | -28.48598 | 38386 ft | 493 kts | 76° |
| 2026-05-04 16:43 | 53.23080 | -28.31772 | 38390 ft | 494 kts | 76° |
| 2026-05-04 16:45 | 53.27372 | -27.98199 | 38395 ft | 493 kts | 77° |
| 2026-05-04 16:46 | 53.30877 | -27.70168 | 38397 ft | 493 kts | 77° |
| 2026-05-04 16:47 | 53.33641 | -27.47655 | 38386 ft | 493 kts | 77° |
| 2026-05-04 16:48 | 53.36350 | -27.25213 | 38383 ft | 493 kts | 77° |
| 2026-05-04 16:49 | 53.39024 | -27.02678 | 38364 ft | 493 kts | 78° |
| 2026-05-04 16:50 | 53.41650 | -26.80164 | 38382 ft | 493 kts | 78° |
| 2026-05-04 16:51 | 53.43597 | -26.63220 | 38374 ft | 493 kts | 78° |
| 2026-05-04 16:52 | 53.46157 | -26.40590 | 38375 ft | 493 kts | 78° |
| 2026-05-04 16:53 | 53.48046 | -26.23617 | 38373 ft | 493 kts | 78° |
| 2026-05-04 16:54 | 53.50522 | -26.01020 | 38374 ft | 493 kts | 78° |
| 2026-05-04 16:55 | 53.54168 | -25.66959 | 38371 ft | 493 kts | 79° |
| 2026-05-04 16:56 | 53.57134 | -25.38513 | 38365 ft | 494 kts | 79° |
| 2026-05-04 16:57 | 53.58885 | -25.21394 | 38564 ft | 495 kts | 79° |
| 2026-05-04 16:58 | 53.60603 | -25.04341 | 39134 ft | 493 kts | 79° |
| 2026-05-04 16:58 | 53.61172 | -24.98633 | 39257 ft | 493 kts | 79° |
| 2026-05-04 16:59 | 53.62299 | -24.87249 | 39360 ft | 493 kts | 79° |
| 2026-05-04 17:00 | 53.64510 | -24.64570 | 39360 ft | 491 kts | 79° |
| 2026-05-04 17:01 | 53.67219 | -24.36140 | 39353 ft | 490 kts | 79° |
| 2026-05-04 17:02 | 53.69327 | -24.13482 | 39351 ft | 490 kts | 80° |
| 2026-05-04 17:03 | 53.70885 | -23.96411 | 39346 ft | 489 kts | 80° |
| 2026-05-04 17:03 | 53.72417 | -23.79351 | 39346 ft | 489 kts | 80° |
| 2026-05-04 17:04 | 53.74413 | -23.56682 | 39349 ft | 489 kts | 80° |
| 2026-05-04 17:05 | 53.76371 | -23.33953 | 39340 ft | 489 kts | 80° |
| 2026-05-04 17:06 | 53.77811 | -23.16887 | 39340 ft | 489 kts | 81° |
| 2026-05-04 17:07 | 53.79071 | -23.01704 | 39339 ft | 489 kts | 81° |
| 2026-05-04 17:07 | 53.80152 | -22.88470 | 39332 ft | 488 kts | 81° |
| 2026-05-04 17:08 | 53.81521 | -22.71454 | 39329 ft | 488 kts | 81° |
| 2026-05-04 17:09 | 53.82423 | -22.60069 | 39328 ft | 488 kts | 81° |
| 2026-05-04 17:09 | 53.83317 | -22.48654 | 39328 ft | 488 kts | 81° |
| 2026-05-04 17:10 | 53.85491 | -22.20237 | 39319 ft | 487 kts | 81° |
| 2026-05-04 17:11 | 53.86344 | -22.08837 | 39317 ft | 487 kts | 81° |
| 2026-05-04 17:12 | 53.87599 | -21.91784 | 39317 ft | 487 kts | 82° |
| 2026-05-04 17:13 | 53.89644 | -21.63252 | 39317 ft | 487 kts | 82° |
| 2026-05-04 17:14 | 53.91230 | -21.40412 | 39309 ft | 487 kts | 82° |
| 2026-05-04 17:15 | 53.92386 | -21.23349 | 39307 ft | 487 kts | 82° |
| 2026-05-04 17:16 | 53.93895 | -21.00504 | 39304 ft | 487 kts | 82° |
| 2026-05-04 17:17 | 53.95354 | -20.77741 | 39297 ft | 485 kts | 83° |
| 2026-05-04 17:18 | 53.96775 | -20.54898 | 39299 ft | 485 kts | 83° |
| 2026-05-04 17:19 | 53.98146 | -20.32133 | 39289 ft | 485 kts | 83° |
| 2026-05-04 17:20 | 53.99479 | -20.09279 | 39278 ft | 485 kts | 83° |
| 2026-05-04 17:20 | 54.00265 | -19.92157 | 39288 ft | 486 kts | 86° |
| 2026-05-04 17:21 | 54.00626 | -19.69162 | 39272 ft | 487 kts | 87° |
| 2026-05-04 17:22 | 54.00809 | -19.57648 | 39275 ft | 487 kts | 87° |
| 2026-05-04 17:23 | 54.01183 | -19.34708 | 39273 ft | 487 kts | 87° |
| 2026-05-04 17:24 | 54.01437 | -19.17426 | 39272 ft | 486 kts | 88° |
| 2026-05-04 17:25 | 54.01734 | -18.94466 | 39258 ft | 486 kts | 88° |
| 2026-05-04 17:26 | 54.01968 | -18.73432 | 39264 ft | 485 kts | 88° |
| 2026-05-04 17:27 | 54.02228 | -18.44700 | 39258 ft | 485 kts | 88° |
| 2026-05-04 17:28 | 54.02386 | -18.21780 | 39246 ft | 485 kts | 88° |
| 2026-05-04 17:29 | 54.02542 | -17.87397 | 39241 ft | 485 kts | 89° |
| 2026-05-04 17:31 | 54.02597 | -17.58789 | 39240 ft | 485 kts | 89° |
| 2026-05-04 17:32 | 54.02583 | -17.30113 | 39226 ft | 485 kts | 89° |
| 2026-05-04 17:33 | 54.02523 | -17.07173 | 39227 ft | 484 kts | 89° |
| 2026-05-04 17:34 | 54.02421 | -16.84333 | 39220 ft | 483 kts | 89° |
| 2026-05-04 17:35 | 54.02231 | -16.55785 | 39215 ft | 484 kts | 90° |
| 2026-05-04 17:36 | 54.02136 | -16.44348 | 39218 ft | 484 kts | 90° |
| 2026-05-04 17:36 | 54.02031 | -16.32911 | 39210 ft | 484 kts | 90° |
| 2026-05-04 17:37 | 54.01914 | -16.21450 | 39212 ft | 484 kts | 90° |
| 2026-05-04 17:37 | 54.01787 | -16.10066 | 39210 ft | 484 kts | 90° |
| 2026-05-04 17:38 | 54.01649 | -15.98631 | 39213 ft | 484 kts | 90° |
| 2026-05-04 17:38 | 54.01499 | -15.87194 | 39210 ft | 483 kts | 90° |
| 2026-05-04 17:39 | 54.01257 | -15.70114 | 39208 ft | 483 kts | 90° |
| 2026-05-04 17:39 | 54.01080 | -15.58687 | 39208 ft | 483 kts | 91° |
| 2026-05-04 17:40 | 54.00894 | -15.47274 | 39205 ft | 483 kts | 91° |
| 2026-05-04 17:40 | 54.00696 | -15.35867 | 39206 ft | 482 kts | 91° |
| 2026-05-04 17:41 | 54.00488 | -15.24456 | 39197 ft | 482 kts | 91° |
| 2026-05-04 17:41 | 54.00270 | -15.13120 | 39197 ft | 482 kts | 91° |
| 2026-05-04 17:42 | 54.00041 | -15.01721 | 39199 ft | 482 kts | 91° |
| 2026-05-04 17:42 | 53.99971 | -14.90308 | 39198 ft | 482 kts | 89° |
| 2026-05-04 17:43 | 54.00031 | -14.78915 | 39193 ft | 482 kts | 89° |
| 2026-05-04 17:43 | 54.00085 | -14.67523 | 39195 ft | 481 kts | 89° |
| 2026-05-04 17:44 | 54.00107 | -14.56129 | 39188 ft | 481 kts | 89° |
| 2026-05-04 17:44 | 54.00107 | -14.44746 | 39185 ft | 481 kts | 89° |
| 2026-05-04 17:45 | 54.00095 | -14.33426 | 39193 ft | 481 kts | 89° |
| 2026-05-04 17:45 | 54.00072 | -14.22028 | 39182 ft | 481 kts | 89° |
| 2026-05-04 17:46 | 54.00040 | -14.10668 | 39183 ft | 481 kts | 89° |
| 2026-05-04 17:46 | 53.99992 | -13.99308 | 39178 ft | 481 kts | 90° |
| 2026-05-04 17:47 | 53.99834 | -13.87936 | 39180 ft | 481 kts | 91° |
| 2026-05-04 17:47 | 53.99619 | -13.76579 | 39168 ft | 481 kts | 91° |
| 2026-05-04 17:48 | 53.99397 | -13.65240 | 39166 ft | 480 kts | 91° |
| 2026-05-04 17:48 | 53.99175 | -13.53930 | 39171 ft | 480 kts | 91° |
| 2026-05-04 17:49 | 53.98946 | -13.42587 | 39174 ft | 480 kts | 91° |
| 2026-05-04 17:49 | 53.98707 | -13.31261 | 39172 ft | 479 kts | 91° |
| 2026-05-04 17:50 | 53.98458 | -13.19991 | 39170 ft | 479 kts | 91° |
| 2026-05-04 17:50 | 53.98198 | -13.08678 | 39168 ft | 479 kts | 92° |
| 2026-05-04 17:51 | 53.97926 | -12.97355 | 39170 ft | 479 kts | 92° |
| 2026-05-04 17:51 | 53.97644 | -12.86030 | 39159 ft | 479 kts | 92° |
| 2026-05-04 17:52 | 53.97351 | -12.74706 | 39163 ft | 479 kts | 92° |
| 2026-05-04 17:52 | 53.97048 | -12.63399 | 39168 ft | 479 kts | 92° |
| 2026-05-04 17:53 | 53.96737 | -12.52170 | 39157 ft | 479 kts | 92° |
| 2026-05-04 17:53 | 53.96412 | -12.40854 | 39148 ft | 479 kts | 92° |
| 2026-05-04 17:54 | 53.96077 | -12.29556 | 39157 ft | 479 kts | 92° |
| 2026-05-04 17:54 | 53.95732 | -12.18253 | 39148 ft | 479 kts | 92° |
| 2026-05-04 17:55 | 53.95375 | -12.06946 | 39165 ft | 479 kts | 92° |
| 2026-05-04 17:55 | 53.95011 | -11.95728 | 39149 ft | 478 kts | 93° |
| 2026-05-04 17:56 | 53.94634 | -11.84442 | 39162 ft | 478 kts | 93° |
| 2026-05-04 17:56 | 53.94248 | -11.73167 | 39146 ft | 478 kts | 93° |
| 2026-05-04 17:57 | 53.93850 | -11.61885 | 39149 ft | 478 kts | 93° |
| 2026-05-04 17:57 | 53.93445 | -11.50700 | 39143 ft | 476 kts | 93° |
| 2026-05-04 17:58 | 53.93031 | -11.39532 | 39150 ft | 474 kts | 93° |
| 2026-05-04 17:58 | 53.92606 | -11.28354 | 39146 ft | 474 kts | 93° |
| 2026-05-04 17:59 | 53.92172 | -11.17227 | 39138 ft | 474 kts | 93° |
| 2026-05-04 18:00 | 53.91499 | -11.00479 | 39148 ft | 474 kts | 94° |
| 2026-05-04 18:00 | 53.91037 | -10.89292 | 39140 ft | 474 kts | 94° |
| 2026-05-04 18:01 | 53.90566 | -10.78168 | 39148 ft | 474 kts | 94° |
| 2026-05-04 18:01 | 53.90084 | -10.67010 | 39148 ft | 474 kts | 94° |
| 2026-05-04 18:02 | 53.89340 | -10.50268 | 39139 ft | 474 kts | 94° |
| 2026-05-04 18:02 | 53.88760 | -10.39126 | 39138 ft | 474 kts | 96° |
| 2026-05-04 18:03 | 53.87911 | -10.28050 | 39138 ft | 474 kts | 97° |
| 2026-05-04 18:03 | 53.86994 | -10.16979 | 39138 ft | 474 kts | 97° |
| 2026-05-04 18:04 | 53.86094 | -10.05981 | 39138 ft | 474 kts | 97° |
| 2026-05-04 18:05 | 53.84748 | -9.89380 | 39133 ft | 474 kts | 97° |
| 2026-05-04 18:05 | 53.84310 | -9.84009 | 39127 ft | 474 kts | 97° |
| 2026-05-04 18:06 | 53.83140 | -9.69838 | 39126 ft | 471 kts | 97° |
| 2026-05-04 18:06 | 53.82226 | -9.58895 | 39122 ft | 469 kts | 97° |
| 2026-05-04 18:07 | 53.81308 | -9.48039 | 39402 ft | 450 kts | 98° |
| 2026-05-04 18:07 | 53.80857 | -9.43513 | 42543 ft | 344 kts | 101° |
| 2026-05-04 18:07 | 53.80417 | -9.39592 | 42762 ft | 350 kts | 100° |
| 2026-05-04 18:08 | 53.79980 | -9.35091 | 39632 ft | 437 kts | 96° |
| 2026-05-04 18:08 | 53.79589 | -9.29666 | 38314 ft | 479 kts | 95° |
| 2026-05-04 18:08 | 53.79196 | -9.23962 | 36821 ft | 492 kts | 96° |
| 2026-05-04 18:08 | 53.78831 | -9.18356 | 36934 ft | 479 kts | 96° |
| 2026-05-04 18:09 | 53.77933 | -9.07360 | 37111 ft | 472 kts | 98° |
| 2026-05-04 18:09 | 53.76856 | -8.96279 | 37102 ft | 479 kts | 98° |
| 2026-05-04 18:10 | 53.75802 | -8.85188 | 37104 ft | 474 kts | 97° |
| 2026-05-04 18:10 | 53.74794 | -8.74268 | 37101 ft | 471 kts | 98° |
| 2026-05-04 18:11 | 53.73790 | -8.63317 | 37100 ft | 471 kts | 98° |
| 2026-05-04 18:11 | 53.72777 | -8.52372 | 37097 ft | 471 kts | 97° |
| 2026-05-04 18:12 | 53.71753 | -8.41435 | 37097 ft | 471 kts | 98° |
| 2026-05-04 18:12 | 53.70723 | -8.30566 | 37100 ft | 471 kts | 98° |
| 2026-05-04 18:13 | 53.69678 | -8.19666 | 37095 ft | 468 kts | 98° |
| 2026-05-04 18:14 | 53.68283 | -8.05258 | 37095 ft | 467 kts | 98° |
| 2026-05-04 18:14 | 53.67051 | -7.92680 | 37090 ft | 467 kts | 98° |
| 2026-05-04 18:15 | 53.65081 | -7.72860 | 37090 ft | 467 kts | 98° |
| 2026-05-04 18:16 | 53.64073 | -7.62058 | 37087 ft | 466 kts | 95° |
| 2026-05-04 18:16 | 53.63332 | -7.51249 | 37085 ft | 466 kts | 95° |
| 2026-05-04 18:17 | 53.62280 | -7.34952 | 37085 ft | 466 kts | 95° |
| 2026-05-04 18:18 | 53.61157 | -7.18668 | 37077 ft | 466 kts | 95° |
| 2026-05-04 18:18 | 53.60384 | -7.07826 | 37078 ft | 466 kts | 95° |
| 2026-05-04 18:19 | 53.59213 | -6.91655 | 37076 ft | 466 kts | 95° |
| 2026-05-04 18:19 | 53.58417 | -6.80821 | 37072 ft | 466 kts | 95° |
| 2026-05-04 18:20 | 53.57611 | -6.69988 | 37073 ft | 466 kts | 96° |
| 2026-05-04 18:20 | 53.56796 | -6.59167 | 37073 ft | 466 kts | 96° |
| 2026-05-04 18:21 | 53.55970 | -6.48333 | 37070 ft | 465 kts | 96° |
| 2026-05-04 18:21 | 53.55143 | -6.37637 | 37078 ft | 462 kts | 96° |
| 2026-05-04 18:22 | 53.54306 | -6.26925 | 37076 ft | 462 kts | 96° |
| 2026-05-04 18:22 | 53.53458 | -6.16198 | 37078 ft | 462 kts | 96° |
| 2026-05-04 18:23 | 53.52601 | -6.05483 | 37078 ft | 462 kts | 96° |
| 2026-05-04 18:23 | 53.51773 | -5.94774 | 37078 ft | 462 kts | 94° |
| 2026-05-04 18:24 | 53.51274 | -5.84014 | 37081 ft | 461 kts | 92° |
| 2026-05-04 18:24 | 53.50898 | -5.73249 | 37075 ft | 461 kts | 92° |
| 2026-05-04 18:25 | 53.50530 | -5.62547 | 37077 ft | 461 kts | 92° |
| 2026-05-04 18:25 | 53.50133 | -5.51713 | 37080 ft | 461 kts | 92° |
| 2026-05-04 18:26 | 53.49723 | -5.41031 | 37078 ft | 461 kts | 92° |
| 2026-05-04 18:26 | 53.49298 | -5.30263 | 37077 ft | 462 kts | 92° |
| 2026-05-04 18:27 | 53.48863 | -5.19485 | 37078 ft | 461 kts | 92° |
| 2026-05-04 18:27 | 53.48419 | -5.08710 | 37080 ft | 461 kts | 93° |
| 2026-05-04 18:28 | 53.47969 | -4.98020 | 37077 ft | 462 kts | 93° |
| 2026-05-04 18:28 | 53.47505 | -4.87249 | 37078 ft | 462 kts | 93° |
| 2026-05-04 18:29 | 53.47035 | -4.76540 | 37079 ft | 462 kts | 93° |
| 2026-05-04 18:29 | 53.46553 | -4.65785 | 37072 ft | 462 kts | 93° |
| 2026-05-04 18:30 | 53.45812 | -4.49665 | 37072 ft | 461 kts | 94° |
| 2026-05-04 18:31 | 53.45309 | -4.38992 | 37073 ft | 461 kts | 94° |
| 2026-05-04 18:31 | 53.44793 | -4.28250 | 37069 ft | 461 kts | 94° |
| 2026-05-04 18:32 | 53.44268 | -4.17512 | 37069 ft | 461 kts | 94° |
| 2026-05-04 18:32 | 53.43513 | -4.06817 | 37071 ft | 462 kts | 102° |
| 2026-05-04 18:33 | 53.41569 | -3.96591 | 37071 ft | 464 kts | 109° |
| 2026-05-04 18:33 | 53.39314 | -3.86442 | 37072 ft | 464 kts | 110° |
| 2026-05-04 18:34 | 53.37036 | -3.76320 | 37069 ft | 464 kts | 110° |
| 2026-05-04 18:34 | 53.34748 | -3.66203 | 37072 ft | 464 kts | 110° |
| 2026-05-04 18:35 | 53.32450 | -3.56089 | 37072 ft | 464 kts | 110° |
| 2026-05-04 18:35 | 53.30160 | -3.46063 | 37065 ft | 464 kts | 109° |
| 2026-05-04 18:36 | 53.27851 | -3.35997 | 37060 ft | 463 kts | 110° |
| 2026-05-04 18:36 | 53.25530 | -3.25929 | 37054 ft | 464 kts | 110° |
| 2026-05-04 18:37 | 53.23203 | -3.15878 | 37052 ft | 464 kts | 110° |
| 2026-05-04 18:37 | 53.20866 | -3.05839 | 37053 ft | 464 kts | 110° |
| 2026-05-04 18:38 | 53.18522 | -2.95810 | 37047 ft | 463 kts | 111° |
| 2026-05-04 18:38 | 53.16187 | -2.85870 | 37048 ft | 463 kts | 110° |
| 2026-05-04 18:39 | 53.13834 | -2.75902 | 37056 ft | 463 kts | 111° |
| 2026-05-04 18:39 | 53.11465 | -2.65909 | 37055 ft | 463 kts | 110° |
| 2026-05-04 18:40 | 53.09097 | -2.55965 | 37052 ft | 463 kts | 110° |
| 2026-05-04 18:40 | 53.07904 | -2.50973 | 36904 ft | 463 kts | 111° |
| 2026-05-04 18:40 | 53.06712 | -2.45997 | 36635 ft | 463 kts | 111° |
| 2026-05-04 18:40 | 53.05516 | -2.41017 | 36371 ft | 463 kts | 111° |
| 2026-05-04 18:41 | 53.04305 | -2.36128 | 36121 ft | 463 kts | 114° |
| 2026-05-04 18:41 | 53.02654 | -2.31533 | 35855 ft | 463 kts | 127° |
| 2026-05-04 18:41 | 53.00369 | -2.27767 | 35602 ft | 465 kts | 141° |
| 2026-05-04 18:41 | 52.97697 | -2.24730 | 35374 ft | 466 kts | 146° |
| 2026-05-04 18:42 | 52.94951 | -2.21866 | 35118 ft | 467 kts | 146° |
| 2026-05-04 18:42 | 52.92191 | -2.19015 | 34881 ft | 466 kts | 146° |
| 2026-05-04 18:42 | 52.89422 | -2.16149 | 34635 ft | 466 kts | 146° |
| 2026-05-04 18:42 | 52.86712 | -2.13336 | 34406 ft | 466 kts | 146° |
| 2026-05-04 18:43 | 52.83965 | -2.10480 | 34162 ft | 466 kts | 146° |
| 2026-05-04 18:43 | 52.81223 | -2.07631 | 33618 ft | 464 kts | 146° |
| 2026-05-04 18:43 | 52.78489 | -2.04790 | 32907 ft | 465 kts | 145° |
| 2026-05-04 18:43 | 52.75749 | -2.01946 | 32180 ft | 466 kts | 145° |
| 2026-05-04 18:44 | 52.72994 | -1.99089 | 31436 ft | 467 kts | 148° |
| 2026-05-04 18:44 | 52.71162 | -1.97192 | 30934 ft | 468 kts | 148° |
| 2026-05-04 18:44 | 52.67495 | -1.93402 | 29864 ft | 470 kts | 148° |
| 2026-05-04 18:44 | 52.64716 | -1.90533 | 28990 ft | 472 kts | 148° |
| 2026-05-04 18:45 | 52.61945 | -1.87677 | 28466 ft | 466 kts | 149° |
| 2026-05-04 18:45 | 52.59217 | -1.84868 | 27928 ft | 460 kts | 149° |
| 2026-05-04 18:45 | 52.56509 | -1.82085 | 27383 ft | 456 kts | 149° |
| 2026-05-04 18:45 | 52.53827 | -1.79333 | 26825 ft | 451 kts | 149° |
| 2026-05-04 18:46 | 52.51173 | -1.76614 | 26295 ft | 447 kts | 150° |
| 2026-05-04 18:46 | 52.48544 | -1.73923 | 25749 ft | 443 kts | 150° |
| 2026-05-04 18:46 | 52.45936 | -1.71259 | 25228 ft | 440 kts | 151° |
| 2026-05-04 18:46 | 52.43377 | -1.68648 | 24695 ft | 436 kts | 151° |
| 2026-05-04 18:47 | 52.40805 | -1.66028 | 24179 ft | 433 kts | 152° |
| 2026-05-04 18:47 | 52.38245 | -1.63423 | 23622 ft | 431 kts | 152° |
| 2026-05-04 18:47 | 52.35700 | -1.60839 | 23012 ft | 428 kts | 152° |
| 2026-05-04 18:47 | 52.33184 | -1.58288 | 22471 ft | 423 kts | 152° |
| 2026-05-04 18:48 | 52.30692 | -1.55763 | 21943 ft | 419 kts | 152° |
| 2026-05-04 18:48 | 52.28230 | -1.53272 | 21416 ft | 415 kts | 151° |
| 2026-05-04 18:48 | 52.25774 | -1.50792 | 20892 ft | 411 kts | 150° |
| 2026-05-04 18:48 | 52.23355 | -1.48351 | 20365 ft | 408 kts | 150° |
| 2026-05-04 18:49 | 52.21017 | -1.45691 | 19945 ft | 412 kts | 144° |
| 2026-05-04 18:49 | 52.18826 | -1.42733 | 19519 ft | 414 kts | 141° |
| 2026-05-04 18:49 | 52.16646 | -1.39681 | 19111 ft | 412 kts | 141° |
| 2026-05-04 18:49 | 52.14480 | -1.36639 | 18705 ft | 409 kts | 141° |
| 2026-05-04 18:50 | 52.12328 | -1.33627 | 18295 ft | 406 kts | 141° |
| 2026-05-04 18:50 | 52.10193 | -1.30647 | 17850 ft | 404 kts | 141° |
| 2026-05-04 18:50 | 52.08051 | -1.27666 | 17455 ft | 403 kts | 141° |
| 2026-05-04 18:50 | 52.05926 | -1.24713 | 17047 ft | 401 kts | 141° |
| 2026-05-04 18:51 | 52.03830 | -1.21806 | 16648 ft | 399 kts | 141° |
| 2026-05-04 18:51 | 52.01721 | -1.18884 | 16235 ft | 398 kts | 141° |
| 2026-05-04 18:51 | 51.99616 | -1.15972 | 15845 ft | 396 kts | 141° |
| 2026-05-04 18:51 | 51.97517 | -1.13073 | 15446 ft | 395 kts | 141° |
| 2026-05-04 18:52 | 51.95426 | -1.10188 | 15070 ft | 394 kts | 140° |
| 2026-05-04 18:52 | 51.93349 | -1.07326 | 14757 ft | 386 kts | 141° |
| 2026-05-04 18:52 | 51.91330 | -1.04544 | 14415 ft | 377 kts | 141° |
| 2026-05-04 18:52 | 51.89368 | -1.01846 | 14013 ft | 371 kts | 141° |
| 2026-05-04 18:53 | 51.87404 | -0.99150 | 13567 ft | 367 kts | 141° |
| 2026-05-04 18:53 | 51.85573 | -0.96303 | 13089 ft | 364 kts | 130° |
| 2026-05-04 18:53 | 51.84229 | -0.92869 | 12646 ft | 360 kts | 118° |
| 2026-05-04 18:53 | 51.83110 | -0.89279 | 12203 ft | 355 kts | 117° |
| 2026-05-04 18:54 | 51.82034 | -0.85703 | 11775 ft | 351 kts | 116° |
| 2026-05-04 18:54 | 51.80983 | -0.82221 | 11356 ft | 346 kts | 117° |
| 2026-05-04 18:54 | 51.79929 | -0.78748 | 10941 ft | 342 kts | 117° |
| 2026-05-04 18:54 | 51.78882 | -0.75319 | 10532 ft | 338 kts | 117° |
| 2026-05-04 18:55 | 51.77845 | -0.71937 | 10265 ft | 331 kts | 117° |
| 2026-05-04 18:55 | 51.75873 | -0.65522 | 9972 ft | 308 kts | 118° |
| 2026-05-04 18:55 | 51.74929 | -0.62462 | 9600 ft | 305 kts | 117° |
| 2026-05-04 18:56 | 51.73960 | -0.59364 | 9039 ft | 309 kts | 118° |
| 2026-05-04 18:56 | 51.72854 | -0.56475 | 8892 ft | 297 kts | 135° |
| 2026-05-04 18:56 | 51.71227 | -0.54609 | 8705 ft | 279 kts | 161° |
| 2026-05-04 18:56 | 51.69404 | -0.54140 | 8479 ft | 257 kts | 188° |
| 2026-05-04 18:57 | 51.67770 | -0.55050 | 8114 ft | 245 kts | 217° |
| 2026-05-04 18:57 | 51.66547 | -0.56842 | 7698 ft | 239 kts | 228° |
| 2026-05-04 18:57 | 51.65454 | -0.58854 | 7214 ft | 239 kts | 230° |
| 2026-05-04 18:57 | 51.64381 | -0.60896 | 7028 ft | 239 kts | 230° |
| 2026-05-04 18:58 | 51.63313 | -0.62941 | 7021 ft | 239 kts | 231° |
| 2026-05-04 18:58 | 51.62244 | -0.64993 | 7022 ft | 238 kts | 231° |
| 2026-05-04 18:58 | 51.61176 | -0.67027 | 7019 ft | 238 kts | 231° |
| 2026-05-04 18:58 | 51.60110 | -0.69059 | 6966 ft | 237 kts | 231° |
| 2026-05-04 18:59 | 51.59043 | -0.71079 | 6823 ft | 237 kts | 231° |
| 2026-05-04 18:59 | 51.57972 | -0.73115 | 6502 ft | 239 kts | 231° |
| 2026-05-04 18:59 | 51.57261 | -0.74462 | 6357 ft | 237 kts | 230° |
| 2026-05-04 18:59 | 51.55856 | -0.77166 | 6033 ft | 238 kts | 231° |
| 2026-05-04 19:00 | 51.54796 | -0.79222 | 6001 ft | 239 kts | 231° |
| 2026-05-04 19:00 | 51.53732 | -0.81284 | 5745 ft | 237 kts | 230° |
| 2026-05-04 19:00 | 51.52685 | -0.83305 | 5213 ft | 235 kts | 231° |
| 2026-05-04 19:00 | 51.51971 | -0.84679 | 4837 ft | 239 kts | 230° |
| 2026-05-04 19:01 | 51.50909 | -0.86701 | 4656 ft | 240 kts | 227° |
| 2026-05-04 19:01 | 51.49533 | -0.88110 | 4542 ft | 231 kts | 195° |
| 2026-05-04 19:01 | 51.48018 | -0.87928 | 4506 ft | 214 kts | 152° |
| 2026-05-04 19:01 | 51.47083 | -0.86288 | 4498 ft | 198 kts | 107° |
| 2026-05-04 19:02 | 51.47133 | -0.84165 | 4432 ft | 192 kts | 72° |
| 2026-05-04 19:02 | 51.47469 | -0.82092 | 4265 ft | 190 kts | 78° |
| 2026-05-04 19:02 | 51.47613 | -0.79996 | 4022 ft | 189 kts | 86° |
| 2026-05-04 19:02 | 51.47641 | -0.77912 | 3749 ft | 189 kts | 88° |
| 2026-05-04 19:03 | 51.47648 | -0.75804 | 3476 ft | 189 kts | 88° |
| 2026-05-04 19:03 | 51.47656 | -0.73708 | 3225 ft | 187 kts | 88° |
| 2026-05-04 19:03 | 51.47664 | -0.71644 | 2960 ft | 183 kts | 88° |
| 2026-05-04 19:03 | 51.47672 | -0.69626 | 2725 ft | 179 kts | 88° |
| 2026-05-04 19:04 | 51.47679 | -0.67633 | 2477 ft | 178 kts | 88° |
| 2026-05-04 19:04 | 51.47686 | -0.65669 | 2240 ft | 174 kts | 87° |
| 2026-05-04 19:04 | 51.47693 | -0.63758 | 1999 ft | 167 kts | 87° |
| 2026-05-04 19:04 | 51.47699 | -0.61946 | 1784 ft | 160 kts | 87° |
| 2026-05-04 19:05 | 51.47705 | -0.60178 | 1563 ft | 156 kts | 86° |
| 2026-05-04 19:05 | 51.47711 | -0.58509 | 1373 ft | 142 kts | 86° |
| 2026-05-04 19:05 | 51.47716 | -0.56961 | 1178 ft | 136 kts | 86° |
| 2026-05-04 19:05 | 51.47723 | -0.55462 | 981 ft | 136 kts | 86° |
| 2026-05-04 19:06 | 51.47729 | -0.53919 | 794 ft | 138 kts | 87° |
| 2026-05-04 19:06 | 51.47734 | -0.52399 | 605 ft | 138 kts | 86° |
| 2026-05-04 19:06 | 51.47740 | -0.50855 | 408 ft | 139 kts | 87° |
| 2026-05-04 19:06 | 51.47745 | -0.49328 | 238 ft | 138 kts | 87° |
| 2026-05-04 19:07 | 51.47758 | -0.47792 | 93 ft | 135 kts | 92° |
| 2026-05-04 19:07 | 51.47758 | -0.46570 | 96 ft | 82 kts | 90° |
| 2026-05-04 19:07 | 51.47707 | -0.46148 | 93 ft | 22 kts | 145° |
| 2026-05-04 19:07 | 51.47628 | -0.46063 | 94 ft | 10 kts | 153° |
| 2026-05-04 19:08 | 51.47607 | -0.46071 | 95 ft | 4 kts | 213° |
| 2026-05-04 19:08 | 51.47597 | -0.46100 | 94 ft | 2 kts | 256° |
| 2026-05-04 19:08 | 51.47595 | -0.46129 | 94 ft | 3 kts | 269° |
| 2026-05-04 19:08 | 51.47595 | -0.46181 | 94 ft | 6 kts | 269° |
| 2026-05-04 19:09 | 51.47594 | -0.46265 | 93 ft | 10 kts | 269° |
| 2026-05-04 19:09 | 51.47592 | -0.46416 | 94 ft | 16 kts | 269° |
| 2026-05-04 19:09 | 51.47591 | -0.46597 | 90 ft | 17 kts | 271° |
| 2026-05-04 19:09 | 51.47592 | -0.46781 | 92 ft | 17 kts | 270° |
| 2026-05-04 19:10 | 51.47571 | -0.46924 | 94 ft | 6 kts | 214° |
| 2026-05-04 19:10 | 51.47533 | -0.46917 | 94 ft | 6 kts | 160° |
| 2026-05-04 19:10 | 51.47504 | -0.46867 | 93 ft | 7 kts | 116° |
| 2026-05-04 19:10 | 51.47477 | -0.46794 | 95 ft | 8 kts | 132° |
| 2026-05-04 19:11 | 51.47441 | -0.46723 | 94 ft | 8 kts | 120° |
| 2026-05-04 19:11 | 51.47412 | -0.46644 | 94 ft | 9 kts | 119° |
| 2026-05-04 19:11 | 51.47392 | -0.46591 | 93 ft | 0 kts | 120° |
| 2026-05-04 19:11 | 51.47392 | -0.46589 | 93 ft | 0 kts | 120° |